createdAt,value
2022-12-28T00:02:13.352Z,7.63
2022-12-28T00:04:40.838Z,15.87
2022-12-28T00:07:08.288Z,12.37
2022-12-28T00:09:35.886Z,5.07
2022-12-28T00:12:03.405Z,10.73
2022-12-28T00:14:30.943Z,6.70
2022-12-28T00:16:58.510Z,9.10
2022-12-28T00:19:26.312Z,7.03
2022-12-28T00:21:54.587Z,7.27
2022-12-28T00:24:24.601Z,4.37
2022-12-28T00:26:53.231Z,7.23
2022-12-28T00:29:21.037Z,10.23
2022-12-28T00:31:48.645Z,6.87
2022-12-28T00:34:16.236Z,4.83
2022-12-28T00:37:09.320Z,6.90
2022-12-28T00:39:31.373Z,12.40
2022-12-28T00:41:58.856Z,8.33
2022-12-28T00:44:26.325Z,6.77
2022-12-28T00:46:53.804Z,6.93
2022-12-28T00:49:21.309Z,6.93
2022-12-28T00:51:48.772Z,13.20
2022-12-28T00:54:16.249Z,11.00
2022-12-28T00:56:43.747Z,10.23
2022-12-28T00:59:12.732Z,9.17
2022-12-28T01:01:40.402Z,5.43
2022-12-28T01:04:08.245Z,4.60
2022-12-28T01:06:35.763Z,6.97
2022-12-28T01:09:05.050Z,5.77
2022-12-28T01:11:32.658Z,9.40
2022-12-28T01:14:03.054Z,9.70
2022-12-28T01:16:35.812Z,8.53
2022-12-28T01:19:06.200Z,6.87
2022-12-28T01:21:35.789Z,6.30
2022-12-28T01:24:05.811Z,7.53
2022-12-28T01:26:34.515Z,5.80
2022-12-28T01:29:02.122Z,4.43
2022-12-28T01:31:33.191Z,6.20
2022-12-28T01:34:01.325Z,5.17
2022-12-28T01:36:35.398Z,6.70
2022-12-28T01:39:05.664Z,5.13
2022-12-28T01:41:37.639Z,5.23
2022-12-28T01:44:05.279Z,7.20
2022-12-28T01:46:39.091Z,7.17
2022-12-28T01:49:13.758Z,5.30
2022-12-28T01:51:47.887Z,9.80
2022-12-28T01:54:16.357Z,6.70
2022-12-28T01:56:45.099Z,8.87
2022-12-28T01:59:13.023Z,8.17
2022-12-28T02:01:41.137Z,7.03
2022-12-28T02:04:08.720Z,12.00
2022-12-28T02:06:36.614Z,6.03
2022-12-28T02:09:35.530Z,5.23
2022-12-28T02:12:03.389Z,7.87
2022-12-28T02:14:31.400Z,6.90
2022-12-28T02:16:59.044Z,6.20
2022-12-28T02:19:38.996Z,5.07
2022-12-28T02:22:37.160Z,5.57
2022-12-28T02:25:29.374Z,5.63
2022-12-28T02:28:21.681Z,8.13
2022-12-28T02:31:00.521Z,6.80
2022-12-28T02:33:37.775Z,6.10
2022-12-28T02:36:18.254Z,6.40
2022-12-28T02:38:54.904Z,6.50
2022-12-28T02:41:25.603Z,6.50
2022-12-28T02:43:55.456Z,6.10
2022-12-28T02:46:52.045Z,6.07
2022-12-28T02:49:46.569Z,6.00
2022-12-28T02:52:25.879Z,6.37
2022-12-28T02:55:17.087Z,6.60
2022-12-28T02:58:09.057Z,6.60
2022-12-28T03:00:45.480Z,9.10
2022-12-28T03:03:35.375Z,6.60
2022-12-28T03:06:53.227Z,6.50
2022-12-28T03:09:30.997Z,6.60
2022-12-28T03:12:10.666Z,5.93
2022-12-28T03:14:46.811Z,6.97
2022-12-28T03:17:34.757Z,5.60
2022-12-28T03:20:26.571Z,5.57
2022-12-28T03:23:15.412Z,5.00
2022-12-28T03:26:03.786Z,6.77
2022-12-28T03:28:58.600Z,7.90
2022-12-28T03:31:29.608Z,7.17
2022-12-28T03:34:09.761Z,4.37
2022-12-28T03:37:02.221Z,4.57
2022-12-28T03:39:48.865Z,6.90
2022-12-28T03:43:10.446Z,6.47
2022-12-28T03:45:52.029Z,6.53
2022-12-28T03:48:22.505Z,6.50
2022-12-28T03:50:52.413Z,6.20
2022-12-28T03:53:24.798Z,6.10
2022-12-28T03:56:10.027Z,7.53
2022-12-28T03:58:38.914Z,6.13
2022-12-28T04:01:07.238Z,6.00
2022-12-28T04:03:36.381Z,6.43
2022-12-28T04:06:04.659Z,6.53
2022-12-28T04:08:33.405Z,6.17
2022-12-28T04:11:02.114Z,6.03
2022-12-28T04:13:31.337Z,6.30
2022-12-28T04:16:11.155Z,6.57
2022-12-28T04:18:42.038Z,6.10
2022-12-28T04:21:11.120Z,6.90
2022-12-28T04:23:41.002Z,7.30
2022-12-28T04:26:17.471Z,6.80
2022-12-28T04:28:46.831Z,7.37
2022-12-28T04:31:34.597Z,12.33
2022-12-28T04:34:08.795Z,8.60
2022-12-28T04:36:40.733Z,8.80
2022-12-28T04:39:13.353Z,8.52
2022-12-28T04:41:40.854Z,9.43
2022-12-28T04:44:08.311Z,7.63
2022-12-28T04:46:35.878Z,7.43
2022-12-28T04:49:03.542Z,6.40
2022-12-28T04:51:32.067Z,6.30
2022-12-28T04:53:59.575Z,7.93
2022-12-28T04:56:28.280Z,7.37
2022-12-28T04:58:59.726Z,7.37
2022-12-28T05:01:27.431Z,9.57
2022-12-28T05:03:58.240Z,7.60
2022-12-28T05:06:28.254Z,7.80
2022-12-28T05:08:57.136Z,7.20
2022-12-28T05:11:28.048Z,7.00
2022-12-28T05:13:56.422Z,7.63
2022-12-28T05:16:25.684Z,11.33
2022-12-28T05:18:53.604Z,8.80
2022-12-28T05:21:23.493Z,8.60
2022-12-28T05:23:51.435Z,11.43
2022-12-28T05:26:22.524Z,7.93
2022-12-28T05:28:50.339Z,17.73
2022-12-28T05:31:21.321Z,9.23
2022-12-28T05:33:49.400Z,13.05
2022-12-28T05:36:19.660Z,12.48
2022-12-28T05:38:47.631Z,13.73
2022-12-28T05:41:21.518Z,9.95
2022-12-28T05:43:49.367Z,8.87
2022-12-28T05:46:27.631Z,8.13
2022-12-28T05:48:55.762Z,13.32
2022-12-28T05:51:25.604Z,8.30
2022-12-28T05:53:53.085Z,8.93
2022-12-28T05:56:23.262Z,16.10
2022-12-28T05:58:58.604Z,8.68
2022-12-28T06:01:32.099Z,10.77
2022-12-28T06:04:02.278Z,13.65
2022-12-28T06:06:31.957Z,7.60
2022-12-28T06:09:02.290Z,20.83
2022-12-28T06:11:30.477Z,9.80
2022-12-28T06:14:01.223Z,6.70
2022-12-28T06:16:31.468Z,7.65
2022-12-28T06:18:59.408Z,7.93
2022-12-28T06:21:29.427Z,7.43
2022-12-28T06:23:59.263Z,8.90
2022-12-28T06:26:28.837Z,11.27
2022-12-28T06:28:56.628Z,9.98
2022-12-28T06:31:26.906Z,7.32
2022-12-28T06:33:57.431Z,6.63
2022-12-28T06:36:30.762Z,6.28
2022-12-28T06:39:00.383Z,7.82
2022-12-28T06:41:28.817Z,7.60
2022-12-28T06:43:57.107Z,6.50
2022-12-28T06:46:26.775Z,6.43
2022-12-28T06:48:54.453Z,7.63
2022-12-28T06:51:25.836Z,7.20
2022-12-28T06:53:54.120Z,7.63
2022-12-28T06:56:32.969Z,6.30
2022-12-28T06:59:03.785Z,5.28
2022-12-28T07:01:37.181Z,7.68
2022-12-28T07:04:06.455Z,5.25
2022-12-28T07:06:39.752Z,5.75
2022-12-28T07:09:10.280Z,4.57
2022-12-28T07:11:37.914Z,4.93
2022-12-28T07:14:05.907Z,5.40
2022-12-28T07:19:01.162Z,6.15
2022-12-28T07:21:34.587Z,4.10
2022-12-28T07:24:03.899Z,4.75
2022-12-28T07:26:33.917Z,6.93
2022-12-28T07:29:03.598Z,6.07
2022-12-28T07:31:39.807Z,5.38
2022-12-28T07:34:11.507Z,4.00
2022-12-28T07:36:38.983Z,4.13
2022-12-28T07:39:06.510Z,4.45
2022-12-28T07:41:36.343Z,4.45
2022-12-28T07:44:06.231Z,5.57
2022-12-28T07:46:35.472Z,4.90
2022-12-28T07:49:03.019Z,7.38
2022-12-28T07:51:33.359Z,4.15
2022-12-28T07:54:01.255Z,4.32
2022-12-28T07:56:30.102Z,3.92
2022-12-28T07:59:04.280Z,5.00
2022-12-28T08:01:33.727Z,5.07
2022-12-28T08:04:05.228Z,4.50
2022-12-28T08:06:36.471Z,5.75
2022-12-28T08:09:05.160Z,6.68
2022-12-28T08:11:34.823Z,6.90
2022-12-28T08:14:03.067Z,11.20
2022-12-28T08:16:33.354Z,7.20
2022-12-28T08:19:01.399Z,5.15
2022-12-28T08:21:34.077Z,8.57
2022-12-28T08:26:40.266Z,6.18
2022-12-28T08:29:11.548Z,6.18
2022-12-28T08:31:42.513Z,8.50
2022-12-28T08:34:13.871Z,7.63
2022-12-28T08:36:41.479Z,10.50
2022-12-28T08:39:10.055Z,4.88
2022-12-28T08:41:37.523Z,5.50
2022-12-28T08:44:05.594Z,5.28
2022-12-28T08:46:34.973Z,4.82
2022-12-28T08:49:03.962Z,4.13
2022-12-28T08:51:36.314Z,3.92
2022-12-28T08:54:04.298Z,4.85
2022-12-28T08:56:34.612Z,5.72
2022-12-28T08:59:02.913Z,4.55
2022-12-28T09:01:42.484Z,3.90
2022-12-28T09:04:20.584Z,6.05
2022-12-28T09:06:48.727Z,4.20
2022-12-28T09:09:17.869Z,4.90
2022-12-28T09:11:46.094Z,4.97
2022-12-28T09:14:22.749Z,4.10
2022-12-28T09:16:53.238Z,6.22
2022-12-28T09:19:21.820Z,3.35
2022-12-28T09:21:52.660Z,7.60
2022-12-28T09:24:20.472Z,5.82
2022-12-28T09:26:48.982Z,4.93
2022-12-28T09:29:16.561Z,6.82
2022-12-28T09:31:44.584Z,4.90
2022-12-28T09:37:01.966Z,2.92
2022-12-28T09:39:30.004Z,4.65
2022-12-28T09:42:09.778Z,3.78
2022-12-28T09:44:59.815Z,2.20
2022-12-28T09:47:46.529Z,2.67
2022-12-28T09:50:16.909Z,2.30
2022-12-28T09:53:03.488Z,2.58
2022-12-28T09:55:33.683Z,2.03
2022-12-28T09:58:02.662Z,2.00
2022-12-28T10:00:50.684Z,2.17
2022-12-28T10:03:24.999Z,1.95
2022-12-28T10:05:53.420Z,2.22
2022-12-28T10:08:23.155Z,2.25
2022-12-28T10:10:52.168Z,2.08
2022-12-28T10:13:53.717Z,2.03
2022-12-28T10:16:20.288Z,2.08
2022-12-28T10:18:49.783Z,1.92
2022-12-28T10:21:20.584Z,2.13
2022-12-28T10:26:42.932Z,2.88
2022-12-28T10:29:19.730Z,2.42
2022-12-28T10:32:04.992Z,3.42
2022-12-28T10:34:34.880Z,3.95
2022-12-28T10:37:17.170Z,4.15
2022-12-28T10:40:00.420Z,3.38
2022-12-28T10:42:38.819Z,2.28
2022-12-28T10:45:16.431Z,2.53
2022-12-28T10:47:47.789Z,1.80
2022-12-28T10:50:38.362Z,2.78
2022-12-28T10:53:06.245Z,2.20
2022-12-28T10:55:34.907Z,2.60
2022-12-28T10:58:31.700Z,2.03
2022-12-28T11:01:08.122Z,2.50
2022-12-28T11:03:37.987Z,3.03
2022-12-28T11:06:10.180Z,3.28
2022-12-28T11:08:40.053Z,2.42
2022-12-28T11:11:16.854Z,2.05
2022-12-28T11:13:49.007Z,3.03
2022-12-28T11:16:16.590Z,2.78
2022-12-28T11:18:44.232Z,2.83
2022-12-28T11:21:19.433Z,3.28
2022-12-28T11:23:51.351Z,2.65
2022-12-28T11:26:20.328Z,5.70
2022-12-28T11:28:51.843Z,6.60
2022-12-28T11:31:31.714Z,8.05
2022-12-28T11:34:04.763Z,5.53
2022-12-28T11:36:38.045Z,4.43
2022-12-28T11:39:24.064Z,4.68
2022-12-28T11:42:28.036Z,9.60
2022-12-28T11:44:43.432Z,7.25
2022-12-28T11:47:17.002Z,8.95
2022-12-28T11:49:46.492Z,11.85
2022-12-28T11:52:31.095Z,8.10
2022-12-28T11:55:23.228Z,9.10
2022-12-28T11:57:51.165Z,5.80
2022-12-28T12:00:23.634Z,5.78
2022-12-28T12:05:39.217Z,6.32
2022-12-28T12:08:14.363Z,5.03
2022-12-28T12:10:48.402Z,3.40
2022-12-28T12:13:28.096Z,3.10
2022-12-28T12:16:16.230Z,2.75
2022-12-28T12:18:51.304Z,2.33
2022-12-28T12:21:33.536Z,2.88
2022-12-28T12:24:27.064Z,2.65
2022-12-28T12:27:08.576Z,2.47
2022-12-28T12:29:44.406Z,3.55
2022-12-28T12:32:37.692Z,2.78
2022-12-28T12:35:07.241Z,3.20
2022-12-28T12:38:15.567Z,2.55
2022-12-28T12:41:20.295Z,2.90
2022-12-28T12:44:06.159Z,2.88
2022-12-28T12:46:54.543Z,2.72
2022-12-28T12:49:54.050Z,2.60
2022-12-28T12:52:36.088Z,3.03
2022-12-28T12:55:39.483Z,2.67
2022-12-28T12:58:33.062Z,2.38
2022-12-28T13:01:21.655Z,3.72
2022-12-28T13:03:54.248Z,3.17
2022-12-28T13:06:28.273Z,2.47
2022-12-28T13:09:04.960Z,2.83
2022-12-28T13:11:37.790Z,2.20
2022-12-28T13:14:06.744Z,2.92
2022-12-28T13:16:34.519Z,2.13
2022-12-28T13:19:06.859Z,5.00
2022-12-28T13:21:46.398Z,2.30
2022-12-28T13:24:26.098Z,2.15
2022-12-28T13:26:58.375Z,2.30
2022-12-28T13:29:28.720Z,2.17
2022-12-28T13:31:56.641Z,2.63
2022-12-28T13:34:29.871Z,2.30
2022-12-28T13:37:02.535Z,2.13
2022-12-28T13:39:41.592Z,2.42
2022-12-28T13:42:29.116Z,2.10
2022-12-28T13:45:03.856Z,2.03
2022-12-28T13:47:40.399Z,3.10
2022-12-28T13:50:34.504Z,2.22
2022-12-28T13:53:07.935Z,2.75
2022-12-28T13:55:40.535Z,2.40
2022-12-28T14:00:39.653Z,2.10
2022-12-28T14:03:11.066Z,2.40
2022-12-28T14:05:45.187Z,2.58
2022-12-28T14:08:12.936Z,2.50
2022-12-28T14:10:41.373Z,1.77
2022-12-28T14:13:10.500Z,3.80
2022-12-28T14:15:41.435Z,3.55
2022-12-28T14:18:13.784Z,2.35
2022-12-28T14:20:53.644Z,3.03
2022-12-28T14:23:24.133Z,2.03
2022-12-28T14:25:53.697Z,2.58
2022-12-28T14:28:53.688Z,6.43
2022-12-28T14:31:32.450Z,3.10
2022-12-28T14:34:03.316Z,2.67
2022-12-28T14:36:42.302Z,4.20
2022-12-28T14:39:44.035Z,4.07
2022-12-28T14:42:26.738Z,3.58
2022-12-28T14:44:56.459Z,5.32
2022-12-28T14:47:57.031Z,2.45
2022-12-28T14:50:27.553Z,3.80
2022-12-28T14:53:17.480Z,4.28
2022-12-28T14:55:53.802Z,3.92
2022-12-28T14:58:25.159Z,5.00
2022-12-28T15:01:02.316Z,3.95
2022-12-28T15:03:30.980Z,2.10
2022-12-28T15:05:59.836Z,3.55
2022-12-28T15:08:30.126Z,3.00
2022-12-28T15:11:00.659Z,2.33
2022-12-28T15:13:28.289Z,4.88
2022-12-28T15:16:00.404Z,3.45
2022-12-28T15:18:29.587Z,3.40
2022-12-28T15:20:58.159Z,5.72
2022-12-28T15:23:25.639Z,3.20
2022-12-28T15:25:53.223Z,3.55
2022-12-28T15:28:20.774Z,3.60
2022-12-28T15:30:48.329Z,6.15
2022-12-28T15:33:16.731Z,4.82
2022-12-28T15:35:44.175Z,5.97
2022-12-28T15:38:11.851Z,3.58
2022-12-28T15:40:40.259Z,4.47
2022-12-28T15:43:07.819Z,7.20
2022-12-28T15:45:35.254Z,6.68
2022-12-28T15:48:02.954Z,5.82
2022-12-28T15:50:30.645Z,6.07
2022-12-28T15:52:58.072Z,9.02
2022-12-28T15:55:25.544Z,4.72
2022-12-28T15:57:53.049Z,6.05
2022-12-28T16:00:21.715Z,6.25
2022-12-28T16:02:49.289Z,5.35
2022-12-28T16:05:17.052Z,5.22
2022-12-28T16:07:44.530Z,6.18
2022-12-28T16:10:12.355Z,5.15
2022-12-28T16:12:39.888Z,9.02
2022-12-28T16:15:08.274Z,7.68
2022-12-28T16:17:41.155Z,4.65
2022-12-28T16:20:14.681Z,5.97
2022-12-28T16:22:42.155Z,7.97
2022-12-28T16:25:09.808Z,3.60
2022-12-28T16:27:37.423Z,5.13
2022-12-28T16:30:06.028Z,4.63
2022-12-28T16:32:33.489Z,5.82
2022-12-28T16:35:00.932Z,4.05
2022-12-28T16:37:28.422Z,6.80
2022-12-28T16:39:56.034Z,4.88
2022-12-28T16:42:23.538Z,4.93
2022-12-28T16:44:51.571Z,4.40
2022-12-28T16:47:19.044Z,7.50
2022-12-28T16:49:46.631Z,4.50
2022-12-28T16:52:14.994Z,6.15
2022-12-28T16:54:42.499Z,5.13
2022-12-28T16:57:09.925Z,6.28
2022-12-28T16:59:37.626Z,4.60
2022-12-28T17:02:05.652Z,4.50
2022-12-28T17:04:33.231Z,3.97
2022-12-28T17:07:00.725Z,4.38
2022-12-28T17:09:28.689Z,4.82
2022-12-28T17:11:56.219Z,5.22
2022-12-28T17:14:36.907Z,6.28
2022-12-28T17:17:07.020Z,4.68
2022-12-28T17:19:35.324Z,8.93
2022-12-28T17:22:04.321Z,4.97
2022-12-28T17:24:31.900Z,3.08
2022-12-28T17:27:06.814Z,4.53
2022-12-28T17:29:37.617Z,9.52
2022-12-28T17:32:06.227Z,9.77
2022-12-28T17:34:33.838Z,3.42
2022-12-28T17:37:01.485Z,5.68
2022-12-28T17:39:32.037Z,5.22
2022-12-28T17:42:02.217Z,6.13
2022-12-28T17:44:29.852Z,5.13
2022-12-28T17:46:57.319Z,4.05
2022-12-28T17:49:25.025Z,7.00
2022-12-28T17:51:52.516Z,5.70
2022-12-28T17:54:20.032Z,4.70
2022-12-28T17:56:47.599Z,5.22
2022-12-28T17:59:16.811Z,2.80
2022-12-28T18:01:44.426Z,6.82
2022-12-28T18:04:12.541Z,4.57
2022-12-28T18:06:40.212Z,4.00
2022-12-28T18:09:08.003Z,3.63
2022-12-28T18:11:35.808Z,3.53
2022-12-28T18:14:03.277Z,3.75
2022-12-28T18:16:30.887Z,4.15
2022-12-28T18:18:58.767Z,5.72
2022-12-28T18:21:27.175Z,3.90
2022-12-28T18:23:54.866Z,3.92
2022-12-28T18:26:26.446Z,5.25
2022-12-28T18:28:55.806Z,6.57
2022-12-28T18:31:23.912Z,3.33
2022-12-28T18:33:51.488Z,5.75
2022-12-28T18:36:19.140Z,3.22
2022-12-28T18:38:47.928Z,3.60
2022-12-28T18:41:18.607Z,6.40
2022-12-28T18:43:46.188Z,4.80
2022-12-28T18:46:13.835Z,5.03
2022-12-28T18:48:42.536Z,4.80
2022-12-28T18:51:15.942Z,3.25
2022-12-28T18:53:44.014Z,2.42
2022-12-28T18:56:17.617Z,3.85
2022-12-28T18:58:45.803Z,3.72
2022-12-28T19:04:18.974Z,4.25
2022-12-28T19:06:46.981Z,3.00
2022-12-28T19:09:15.300Z,3.45
2022-12-28T19:11:45.229Z,2.80
2022-12-28T19:14:14.735Z,4.20
2022-12-28T19:16:42.670Z,3.85
2022-12-28T19:19:11.459Z,5.75
2022-12-28T19:21:43.133Z,5.53
2022-12-28T19:24:16.131Z,3.80
2022-12-28T19:26:45.701Z,4.32
2022-12-28T19:29:14.689Z,4.35
2022-12-28T19:31:45.265Z,2.40
2022-12-28T19:34:12.798Z,3.45
2022-12-28T19:36:40.279Z,4.75
2022-12-28T19:39:07.736Z,3.45
2022-12-28T19:41:35.820Z,3.97
2022-12-28T19:44:03.545Z,4.07
